Airfield :
LOGIN :

Register | Disclaimer

   EN    FR    IT 

 










Legend :    VFR   Marginal VFR   IFR   Intensive IFR   Very Intensive IFR
Visi :
Ceiling :
>= 8 km
>= 3000ft
5 to 8 km
1000 to 3000 ft
1500m to 5 km
500 to 1000 ft
800 to 1500m
200 to 500 ft
< 800m
< 200 ft
Symbols :   Thunderstorms  Fog  Heavy snow  Heavy precipitations  Wind > 20 kt
SIGMETs :     Misc.  Thunderstorms  Icing  Turbulence  Mountain Waves  Volcanic Ashes






- Airport Elevation : 102 ft
- IATA code : EXT


EGTE - Exeter

CURRENT METAR :
  • 121420Z 13005KT 040V170 CAVOK 29/18 Q1012

EXPIRED METARs :
  • 121350Z 14005KT 080V200 CAVOK 29/18 Q1012
  • 121320Z 14008KT 080V170 CAVOK 29/18 Q1012
  • 121250Z 12008KT 090V150 CAVOK 30/18 Q1012
  • 121220Z 11006KT CAVOK 30/17 Q1012
  • 121150Z 09008KT CAVOK 30/18 Q1012

TAF TAF EGTE
Valid from the 12 at 15:00 until the 13 at 00:00 UTC


121357Z 1215/1224 12005KT 9999 FEW045
PROB30
TEMPO 1215/1224 VRB15G30KT 2000 +TSRAGR



MET'MAP, your aeronautical weather chart ! - Copyright ORBIFLY December 2007 - Disclaimer

ORBIFLY MET'MAP TEAM :

Programming & Development : Alexandra Zaïnal
Concept & original design : Baudouin d'Aumeries
Assistance for programming : Marc-Olivier Méhu
Technical & hardware support : Manuel Goepfert

Contact : metmap@orbifly.com




SOURCES & CREDITS :

   NOAA